Main page
METAR-TAF:

METAR-TAF

Airports :

Tel Aviv / Ben Gurion, Israel

Ben Gurion Airport

latitude: 32-00N, longitude: 034-54E, elevation: 40 m

Current weather observation

The report was made 39 minutes ago, at 18:20 UTC
Wind 8 kt from the West
Temperature 13°C
Humidity 72%
Pressure 1018 hPa
Visibility 10 km or more
Broken clouds at a height of 4000 ft
light rain

METAR: LLBG 191820Z 26008KT 9999 -RA BKN040 13/08 Q1018 NOSIG

Time: 20:59 (18:59 UTC)

Forecast

The report was made 1 hour and 36 minutes ago, at 17:23 UTC
Forecast valid from 19 at 18 UTC to 20 at 18 UTC
Wind 8 kt from the West
Visibility 10 km or more
Scattered clouds at a height of 3500 ft
Becoming
from 19 at 23 UTC to 20 at 02 UTC
Wind 5 kt from the South
Becoming
from 20 at 07 UTC to 20 at 09 UTC
Wind 10 kt from the West

TAF: LLBG 191723Z 1918/2018 27008KT 9999 SCT035 BECMG 1923/2002 19005KT BECMG 2007/2009 27010KT TX18/2012Z TN11/2004Z

Weather observations and forecasts of more than 4000 airports (METAR and TAF reports).

The available stations are represented by yellow and red dots on the map.

Hover mouse over dot to see the name of the station.

Then click to see weather observations and forecasts.

To change the map : click on the green buttons with a black cross to zoom in, on the green button with a dash to zoom out, or on the green arrows for adjacent maps.


METAR-TAF: